Time;durP1;ratioP1;P1;durP2;ratioP2;P2;SDS_P1;SDS_P2;PMS_P1;PMS_P2;Temp;Humidity;BMP_temperature;BMP_pressure;BME280_temperature;BME280_humidity;BME280_pressure;Samples;Min_cycle;Max_cycle;Signal;HPM_P1;HPM_P2
2023/07/26 04:06:33;;;;;;;;;30.50;27.50;;;;;;;;5848164;39;10000326;-51
2023/07/26 04:12:37;;;;;;;;;32.00;28.25;;;;;;;;6490916;39;9926;-52
2023/07/26 09:06:16;;;;;;;;;23.75;23.25;;;;;;;;6486771;31;9130;-61
2023/07/26 09:12:27;;;;;;;;;24.75;24.50;;;;;;;;6485633;39;8917;-59
2023/07/26 09:18:30;;;;;;;;;16.00;14.50;;;;;;;;6485904;31;8889;-60
2023/07/26 09:24:36;;;;;;;;;22.50;22.25;;;;;;;;6531145;36;9073;-59
2023/07/26 09:30:41;;;;;;;;;20.00;20.00;;;;;;;;6483295;39;8920;-60
2023/07/26 09:36:49;;;;;;;;;24.25;21.00;;;;;;;;6484699;47;8934;-59
2023/07/26 09:42:54;;;;;;;;;28.00;25.00;;;;;;;;6485469;39;8985;-60
2023/07/26 09:49:05;;;;;;;;;26.75;26.00;;;;;;;;6487182;47;8889;-59
2023/07/26 09:55:08;;;;;;;;;20.50;18.75;;;;;;;;6485460;39;8955;-59
2023/07/26 10:01:23;;;;;;;;;23.25;22.25;;;;;;;;6485695;39;8933;-60
2023/07/26 10:07:28;;;;;;;;;24.00;21.50;;;;;;;;6486103;39;8919;-58
2023/07/26 10:13:32;;;;;;;;;27.75;24.50;;;;;;;;6487559;31;8943;-60
2023/07/26 10:19:40;;;;;;;;;24.25;23.75;;;;;;;;6488303;31;9145;-59
2023/07/26 10:25:43;;;;;;;;;15.00;14.00;;;;;;;;6487606;39;8954;-59
2023/07/26 10:32:09;;;;;;;;;22.50;20.50;;;;;;;;6488339;39;8900;-59
2023/07/26 10:38:19;;;;;;;;;22.25;19.00;;;;;;;;6487185;31;9045;-58
2023/07/26 10:44:23;;;;;;;;;29.50;26.00;;;;;;;;6488066;46;9023;-59
2023/07/26 10:50:25;;;;;;;;;24.00;21.50;;;;;;;;6487096;39;9606;-60
2023/07/26 10:56:32;;;;;;;;;20.50;17.50;;;;;;;;6487104;31;8962;-59
2023/07/26 11:02:49;;;;;;;;;20.25;19.25;;;;;;;;6485930;39;9044;-59
2023/07/26 11:08:53;;;;;;;;;24.25;23.00;;;;;;;;6483283;39;8933;-60
2023/07/26 11:14:59;;;;;;;;;20.75;19.00;;;;;;;;6484869;39;8945;-59
2023/07/26 11:21:22;;;;;;;;;15.75;15.75;;;;;;;;6483968;39;8995;-60
2023/07/26 11:27:25;;;;;;;;;23.50;22.25;;;;;;;;6483124;39;8958;-58
2023/07/26 11:33:41;;;;;;;;;20.00;20.00;;;;;;;;6485272;39;9629;-60
2023/07/26 11:39:43;;;;;;;;;25.75;23.75;;;;;;;;6485676;39;8945;-59
2023/07/26 11:45:46;;;;;;;;;16.50;14.75;;;;;;;;6485330;46;8912;-59
2023/07/26 11:51:51;;;;;;;;;23.75;21.00;;;;;;;;6485009;46;8944;-59
2023/07/26 11:57:55;;;;;;;;;23.00;21.50;;;;;;;;6485179;46;8920;-59
2023/07/26 12:04:00;;;;;;;;;22.00;20.25;;;;;;;;6483090;39;9020;-61
2023/07/26 12:10:05;;;;;;;;;18.00;17.75;;;;;;;;6485202;31;8919;-60
2023/07/26 12:16:09;;;;;;;;;22.25;20.50;;;;;;;;6483770;46;8920;-60
2023/07/26 12:22:13;;;;;;;;;18.75;18.75;;;;;;;;6485928;31;9002;-61
2023/07/26 12:28:15;;;;;;;;;20.50;19.50;;;;;;;;6485006;39;8932;-61
2023/07/26 12:34:31;;;;;;;;;21.75;17.25;;;;;;;;6484762;46;9050;-59
2023/07/26 12:40:34;;;;;;;;;10.00;9.50;;;;;;;;6483844;46;8944;-61
2023/07/26 12:46:39;;;;;;;;;21.00;16.50;;;;;;;;6482902;46;8907;-58
2023/07/26 12:53:02;;;;;;;;;18.50;15.75;;;;;;;;6484329;46;9071;-59
2023/07/26 12:59:05;;;;;;;;;16.00;14.50;;;;;;;;6483907;39;8911;-60
2023/07/26 13:05:10;;;;;;;;;21.00;19.00;;;;;;;;6485632;31;9052;-59
2023/07/26 13:11:13;;;;;;;;;16.50;15.50;;;;;;;;6483369;39;8937;-58
2023/07/26 13:17:15;;;;;;;;;18.20;18.00;;;;;;;;6123077;46;10001021;-58
2023/07/26 13:23:19;;;;;;;;;17.50;14.50;;;;;;;;6483594;39;8944;-60
2023/07/26 13:29:24;;;;;;;;;10.50;10.50;;;;;;;;6484679;39;8988;-59
2023/07/26 13:35:26;;;;;;;;;15.25;13.50;;;;;;;;6484756;39;8951;-59
2023/07/26 13:41:30;;;;;;;;;21.50;21.25;;;;;;;;6484185;39;8945;-58
2023/07/26 13:47:33;;;;;;;;;17.00;17.00;;;;;;;;6304305;36;10000849;-59
2023/07/26 13:53:37;;;;;;;;;18.00;16.00;;;;;;;;6485586;46;8920;-58
2023/07/26 13:59:42;;;;;;;;;16.75;15.50;;;;;;;;6486183;39;8972;-60
2023/07/26 14:05:45;;;;;;;;;15.00;14.25;;;;;;;;6488973;46;8945;-59
2023/07/26 14:11:47;;;;;;;;;14.50;14.50;;;;;;;;6490059;39;9723;-59
2023/07/26 14:17:53;;;;;;;;;16.75;15.75;;;;;;;;6489893;46;8951;-60
2023/07/26 14:23:55;;;;;;;;;13.50;11.75;;;;;;;;6489258;46;8931;-59
2023/07/26 14:30:01;;;;;;;;;19.75;16.50;;;;;;;;6488657;46;9020;-58
2023/07/26 14:36:05;;;;;;;;;18.50;15.00;;;;;;;;6490317;39;8919;-58
2023/07/26 14:42:08;;;;;;;;;14.75;14.00;;;;;;;;6489924;39;9067;-59
2023/07/26 14:48:15;;;;;;;;;12.75;12.75;;;;;;;;6489755;31;8985;-59
2023/07/26 14:54:18;;;;;;;;;12.00;12.00;;;;;;;;6488411;39;8909;-60
2023/07/26 15:00:20;;;;;;;;;14.50;13.50;;;;;;;;6489460;39;8971;-61
2023/07/26 15:06:24;;;;;;;;;16.50;16.00;;;;;;;;6490225;39;9067;-58
2023/07/26 15:12:28;;;;;;;;;14.00;13.50;;;;;;;;6490437;31;8904;-61
2023/07/26 15:18:30;;;;;;;;;12.25;12.25;;;;;;;;6489583;46;8916;-61
2023/07/26 15:24:33;;;;;;;;;18.25;16.50;;;;;;;;6488467;46;8848;-61
2023/07/26 15:30:38;;;;;;;;;14.50;12.25;;;;;;;;6489431;39;8958;-60
2023/07/26 15:36:42;;;;;;;;;15.50;15.00;;;;;;;;6489250;39;8974;-61
2023/07/26 15:42:47;;;;;;;;;14.50;14.00;;;;;;;;6488544;39;8909;-59
2023/07/26 15:49:02;;;;;;;;;15.25;12.25;;;;;;;;6488799;39;9074;-58
2023/07/26 15:55:05;;;;;;;;;11.00;10.75;;;;;;;;6488318;46;8924;-59
2023/07/26 16:01:08;;;;;;;;;8.75;7.50;;;;;;;;6487628;46;9006;-61
2023/07/26 16:07:13;;;;;;;;;19.00;15.25;;;;;;;;6488768;46;9023;-57
2023/07/26 16:13:17;;;;;;;;;18.50;16.50;;;;;;;;6489163;39;8939;-59
2023/07/26 16:19:22;;;;;;;;;16.50;14.75;;;;;;;;6488891;39;8900;-58
2023/07/26 16:25:29;;;;;;;;;17.00;13.75;;;;;;;;6488085;31;8962;-59
2023/07/26 16:31:36;;;;;;;;;17.00;16.00;;;;;;;;6488698;39;8924;-54
2023/07/26 16:37:38;;;;;;;;;16.75;15.25;;;;;;;;6487843;31;9018;-53
2023/07/26 16:43:41;;;;;;;;;17.00;16.25;;;;;;;;6488633;39;8861;-51
2023/07/26 16:49:44;;;;;;;;;14.50;13.50;;;;;;;;6488921;39;8909;-54
2023/07/26 16:55:47;;;;;;;;;13.75;13.75;;;;;;;;6488419;46;8868;-57
2023/07/26 17:01:50;;;;;;;;;17.00;16.75;;;;;;;;6487414;39;9818;-55
2023/07/26 17:07:52;;;;;;;;;15.25;15.25;;;;;;;;6489184;39;9530;-55
2023/07/26 17:13:54;;;;;;;;;17.75;17.00;;;;;;;;6488930;39;8887;-54
2023/07/26 17:19:57;;;;;;;;;18.75;16.50;;;;;;;;6487178;46;8864;-55
2023/07/26 17:25:59;;;;;;;;;14.00;13.50;;;;;;;;6489364;31;8883;-52
2023/07/26 17:32:01;;;;;;;;;19.25;17.50;;;;;;;;6488889;31;8848;-55
2023/07/26 17:38:03;;;;;;;;;20.50;19.50;;;;;;;;6487682;39;8863;-54
2023/07/26 17:44:06;;;;;;;;;20.50;19.25;;;;;;;;6488116;39;8947;-55
2023/07/26 17:50:10;;;;;;;;;21.75;19.50;;;;;;;;6488416;47;8887;-54
2023/07/26 17:56:13;;;;;;;;;22.25;22.25;;;;;;;;6486667;47;8880;-52
2023/07/26 18:02:15;;;;;;;;;15.50;15.00;;;;;;;;6487239;47;8981;-56
2023/07/26 18:08:17;;;;;;;;;18.75;16.25;;;;;;;;6487932;39;8861;-53
2023/07/26 18:14:21;;;;;;;;;17.25;15.25;;;;;;;;6488420;39;9107;-55
2023/07/26 18:20:24;;;;;;;;;15.50;13.50;;;;;;;;6487903;39;8940;-53
2023/07/26 18:26:26;;;;;;;;;9.50;8.25;;;;;;;;6486807;46;8919;-53
2023/07/26 18:32:29;;;;;;;;;14.50;13.75;;;;;;;;6488626;39;9064;-54
2023/07/26 18:38:32;;;;;;;;;21.75;19.50;;;;;;;;6488257;39;9027;-55
2023/07/26 18:44:36;;;;;;;;;12.00;10.50;;;;;;;;6489353;46;8911;-57
2023/07/26 18:50:38;;;;;;;;;19.75;17.50;;;;;;;;6490479;31;8851;-53
2023/07/26 18:56:42;;;;;;;;;14.75;13.75;;;;;;;;6490387;39;9561;-54
2023/07/26 19:02:44;;;;;;;;;17.25;15.50;;;;;;;;6489160;39;8943;-55
2023/07/26 19:08:47;;;;;;;;;17.75;17.50;;;;;;;;6487805;39;8943;-56
2023/07/26 19:14:49;;;;;;;;;19.75;18.00;;;;;;;;6488212;46;8840;-56
2023/07/26 19:21:07;;;;;;;;;17.25;15.75;;;;;;;;6488576;39;8908;-55
2023/07/26 19:27:09;;;;;;;;;19.25;18.25;;;;;;;;6487776;39;8926;-55
2023/07/26 19:33:12;;;;;;;;;17.50;13.75;;;;;;;;6488479;39;8897;-56
2023/07/26 19:39:14;;;;;;;;;15.25;15.25;;;;;;;;6487495;39;8895;-54
2023/07/26 19:45:16;;;;;;;;;11.25;10.75;;;;;;;;6487861;39;9541;-53
2023/07/26 19:51:20;;;;;;;;;7.50;7.50;;;;;;;;6488012;31;8903;-55
2023/07/26 19:57:22;;;;;;;;;10.00;10.00;;;;;;;;6487639;39;8972;-55
2023/07/26 20:03:25;;;;;;;;;8.25;8.25;;;;;;;;6488920;39;9547;-52
2023/07/26 20:09:27;;;;;;;;;12.25;12.25;;;;;;;;6487730;31;8904;-54
2023/07/26 20:15:30;;;;;;;;;11.00;9.67;;;;;;;;6487781;39;8888;-54
2023/07/26 20:21:32;;;;;;;;;13.50;12.25;;;;;;;;6488527;39;8871;-54
2023/07/26 20:27:34;;;;;;;;;6.50;6.50;;;;;;;;6489184;31;8975;-56
2023/07/26 20:33:37;;;;;;;;;9.00;7.50;;;;;;;;6486282;36;127241;-53
2023/07/26 20:39:39;;;;;;;;;10.00;8.00;;;;;;;;6487136;46;8942;-54
2023/07/26 20:45:41;;;;;;;;;8.25;8.25;;;;;;;;6488837;39;9496;-51
2023/07/26 20:51:46;;;;;;;;;14.75;11.25;;;;;;;;6488496;39;8899;-52
2023/07/26 20:57:49;;;;;;;;;11.25;10.00;;;;;;;;6486771;39;8955;-52
2023/07/26 21:03:51;;;;;;;;;12.00;11.25;;;;;;;;6487256;46;8973;-54
2023/07/26 21:09:53;;;;;;;;;15.50;13.75;;;;;;;;6487283;46;9393;-53
2023/07/26 21:15:58;;;;;;;;;17.50;17.50;;;;;;;;6487886;39;8847;-54
2023/07/26 21:22:00;;;;;;;;;15.50;13.75;;;;;;;;6486060;39;9736;-56
2023/07/26 21:28:02;;;;;;;;;17.75;16.75;;;;;;;;6487862;39;8863;-54
2023/07/26 21:34:05;;;;;;;;;19.33;19.33;;;;;;;;6487977;39;8861;-53
2023/07/26 21:40:09;;;;;;;;;20.00;17.50;;;;;;;;6487552;39;8884;-55
2023/07/26 21:46:11;;;;;;;;;17.00;15.25;;;;;;;;6488568;39;8907;-54
2023/07/26 21:52:13;;;;;;;;;19.75;17.00;;;;;;;;6487338;39;8902;-57
2023/07/26 21:58:17;;;;;;;;;11.00;9.50;;;;;;;;6487728;31;8901;-52
2023/07/26 22:04:19;;;;;;;;;18.67;16.00;;;;;;;;6487147;39;8903;-53
2023/07/26 22:10:22;;;;;;;;;20.50;17.50;;;;;;;;6488504;39;8897;-55
2023/07/26 22:16:25;;;;;;;;;11.25;11.25;;;;;;;;6488676;39;8939;-54
2023/07/26 22:22:27;;;;;;;;;13.75;12.00;;;;;;;;6489073;46;8951;-51
2023/07/26 22:28:29;;;;;;;;;11.75;11.25;;;;;;;;6488203;31;8918;-52
2023/07/26 22:34:32;;;;;;;;;12.50;10.50;;;;;;;;6488627;46;8943;-55
2023/07/26 22:40:35;;;;;;;;;13.00;13.00;;;;;;;;6489414;31;9483;-53
2023/07/26 22:46:40;;;;;;;;;17.25;15.75;;;;;;;;6489263;46;8980;-52
2023/07/26 22:52:43;;;;;;;;;16.50;14.00;;;;;;;;6488739;39;8883;-55
2023/07/26 22:58:46;;;;;;;;;14.50;14.50;;;;;;;;6488839;39;8967;-54
2023/07/26 23:04:49;;;;;;;;;16.50;15.00;;;;;;;;6489464;46;8943;-52
2023/07/26 23:10:59;;;;;;;;;19.25;17.25;;;;;;;;6488749;39;8889;-53
2023/07/26 23:17:02;;;;;;;;;18.33;14.33;;;;;;;;6487511;39;8891;-51
2023/07/26 23:23:04;;;;;;;;;16.00;16.00;;;;;;;;6488515;39;8909;-53
2023/07/26 23:29:07;;;;;;;;;13.67;13.67;;;;;;;;6488357;31;9035;-53
2023/07/26 23:35:09;;;;;;;;;20.67;19.33;;;;;;;;6487579;39;8888;-53
2023/07/26 23:41:12;;;;;;;;;17.75;15.00;;;;;;;;6488174;31;8867;-52
2023/07/26 23:47:14;;;;;;;;;15.67;14.33;;;;;;;;6488546;39;8936;-54
2023/07/26 23:53:17;;;;;;;;;17.00;15.67;;;;;;;;6488593;39;9637;-52
2023/07/26 23:59:19;;;;;;;;;19.00;18.00;;;;;;;;6486922;31;9306;-53
